Monterrey, México

3:18 PM EST en Septiembre 01, 2015 (GMT -0500)
PrepaUDEM Unidad Fundadores | | Change Station
CLOSE
Current Station
Estación meteorológica personal
Location: Escobedo, NUEVO LEON
Altura: 1630 ft
Estaciones meteorológicas cercanas

Alt 1630 ft 25.77 °N, 100.30 °W | Updated 3 minutes ago

Mostly Cloudy
Muy nublado
84.2 ° F
Sensación térmica 89 ° F
N
5.0
Viento Variable Viento desde SE
Gusts 7.0 mph

Hoy
Alta -- | Baja -- ° F
--% Posibilidad de precipitaciones
Ayer
Alta -- | Baja -- ° F
Precip. -- pul
7:21 AM 8:00 PM
Gibosa menguante, 86% visible
Presión 29.96 pul
Visibilidad 12.0 Millas
Nubes Nubes dispersas 5000 ft
Muy nublado 6000 ft
Índice de calor 89 ° F
Punto de rocío 70 ° F
Humedad 63%
Precipitaciones 0.00 pul
Espesor de la nieve No disponible.
UV 6 de una escala de 12
Polen No disponible.
Calidad del aire No disponible.
Flu Activity No disponible.
METAR MMMY 011950Z 08007KT 12SM SCT050 BKN060 29/18 A2996 RMK 8/800
Presión 29.96 pul
Visibilidad 12.0 Millas
Nubes Nubes dispersas 5000 ft
Muy nublado 6000 ft
Índice de calor 89 ° F
Punto de rocío 70 ° F
Humedad 63%
Precipitaciones 0.00 pul
Espesor de la nieve No disponible.
UV 6 de una escala de 12
Polen No disponible.
Calidad del aire No disponible.
Flu Activity No disponible.
METAR MMMY 011950Z 08007KT 12SM SCT050 BKN060 29/18 A2996 RMK 8/800

10-Day Weather Forecast

×

Almanac

Astronomía

Sep. 01, 2015 Salida Puesta
Hora real
Crepúsculo civil
Crepúsculo náutico
Crepúsculo astronómico
Luna
Horas de luz
Horas de luz
Tomorrow will be .
, % of the Moon is Illuminated

Extremos de hoy

Máximos del país Bajas del país

Community

WunderPhotos

Upload Photos

1,851,605 ¡fotos cargadas!

WunderBlogs® & News

Nearby

Calidad del aire

  Calidad del aire Índice AQ Contaminante
Not available.

Grosos de nieve

Estación Profundido Altura

Actividad de terremotos

Ciudad Distance Mag. Tiempo y dato
Magnitud mínima muestra es 2,5.

Temperaturas de aguas costeras

Lugar Temperatura

Stations

Estaciones meteorológicas cercanas

Ubicación de la estación Temp. Vientos helados Punto de rocío Humedad Viento Precip. Alt Actualizado Tipo